Thetford Center, VT

8:12 AM EDT on September 18, 2014 (GMT -0400)
Lebanon Municipal | Change Station
CLOSE
Current Station
Airport
Location: Lebanon,
Elevation: 597 ft
Nearby Weather Stations
Active Advisory: Freeze Warning

Elev 597 ft 43.63 °N, 72.30 °W | Updated 19 minutes ago

Fog
Fog
46 °F
Feels Like 45 °F
N
4
Wind Variable Wind from South

Today
High -- | Low -- °F
--% Chance of Precip.
Yesterday
High -- | Low -- °F
Precip. -- in
6:31 AM 6:53 PM
Waning Crescent, 27% visible
Pressure 29.99 in
Visibility 0.2 miles
Clouds
Windchill 45 °F
Dew Point 43 °F
Humidity 89%
Rainfall 0.00 in
Snow Depth Not available.
UV Not available.
Pollen 2.20 out of 12
Ozone Good
PM2.5 Good
Flu Activity Not available.
METAR KLEB 181153Z 17003KT M1/4SM FG VV001 08/06 A2998 RMK AO2 SLP154 T00780061 10078 20067 53011

More Conditions Fewer Conditions

Pressure 29.99 in
Visibility 0.2 miles
Clouds
Windchill 45 °F
Dew Point 43 °F
Humidity 89%
Rainfall 0.00 in
Snow Depth Not available.
UV Not available.
Pollen 2.20 out of 12
Ozone Good
PM2.5 Good
Flu Activity Not available.
METAR KLEB 181153Z 17003KT M1/4SM FG VV001 08/06 A2998 RMK AO2 SLP154 T00780061 10078 20067 53011

More Conditions Fewer Conditions

10-Day Weather Forecast

Almanac

Astronomy

Sep. 18, 2014 Rise Set
Actual Time 6:31 AM EDT 6:53 PM EDT
Civil Twilight 6:02 AM EDT 7:22 PM EDT
Nautical Twilight 5:28 AM EDT 7:56 PM EDT
Astronomical Twilight 4:53 AM EDT 8:31 PM EDT
Moon 1:13 AM EDT 3:50 PM EDT
Length of Visible Light 13h 19m
Length of Day
12h 22m
Tomorrow will be 2m 59s shorter.
Waning Crescent, 27% of the Moon is Illuminated
Today
Waning Crescent
Sep 24
New
Oct 1
First Quarter
Oct 8
Full
Oct 15
Last Quarter

Today's Extremes

State Highs State Lows

Community

WunderPhotos

Upload Photos

1,754,332 photos uploaded!

Nearby

Air Quality

  Air Quality AQ Index Pollutant
Yesterday Good
OZONE
Yesterday Good
PM2.5
Current Good
OZONE
Current Good
PM2.5
Thursday Good
PM2.5
Thursday Good
OZONE
Friday Good
PM2.5
Friday Good
OZONE

Snow Depth

Station Depth Elevation
No new snow has been reported.

Earthquake Activity

City Distance Mag. Time & Date
No recent earthquake activity has been reported nearby.
Minimum magnitude displayed is 2.5.

Coastal Water Temperatures

Place Temperature
No Stations Reporting

Nearby Weather Stations